METAR Data
IDs: Format: Raw Decoded Include TAF

Data at: 0749 UTC 07 Apr 2020

METAR for:KRMN (Stafford Rgnl, VA, US)
Text:KRMN 070735Z AUTO 00000KT 10SM BKN070 08/03 A3002 RMK AO2 T00790031
Temperature: 7.9°C ( 46°F)
Dewpoint: 3.1°C ( 38°F) [RH = 72%]
Pressure (altimeter):30.02 inches Hg (1016.7 mb)
Winds:calm
Visibility:10 or more sm (16+ km)
Ceiling:7000 feet AGL
Clouds: broken clouds at 7000 feet AGL
QC Flag:automated observation with no human augmentation